sensor_id;sensor_type;location;lat;lon;timestamp;P1;durP1;ratioP1;P2;durP2;ratioP2
74074;SDS011;62428;51.412;5.432;2023-05-10T00:02:23;24.70;;;12.53;;
74074;SDS011;62428;51.412;5.432;2023-05-10T00:04:49;28.92;;;13.75;;
74074;SDS011;62428;51.412;5.432;2023-05-10T00:07:14;26.90;;;13.90;;
74074;SDS011;62428;51.412;5.432;2023-05-10T00:09:42;30.45;;;13.80;;
74074;SDS011;62428;51.412;5.432;2023-05-10T00:12:07;31.00;;;14.40;;
74074;SDS011;62428;51.412;5.432;2023-05-10T00:14:33;32.47;;;15.37;;
74074;SDS011;62428;51.412;5.432;2023-05-10T00:16:58;35.03;;;15.20;;
74074;SDS011;62428;51.412;5.432;2023-05-10T00:19:23;32.00;;;15.23;;
74074;SDS011;62428;51.412;5.432;2023-05-10T00:21:49;30.53;;;14.37;;
74074;SDS011;62428;51.412;5.432;2023-05-10T00:24:14;32.63;;;14.40;;
74074;SDS011;62428;51.412;5.432;2023-05-10T00:26:39;28.60;;;14.63;;
74074;SDS011;62428;51.412;5.432;2023-05-10T00:29:07;31.63;;;15.55;;
74074;SDS011;62428;51.412;5.432;2023-05-10T00:31:32;33.53;;;15.40;;
74074;SDS011;62428;51.412;5.432;2023-05-10T00:33:57;39.20;;;16.63;;
74074;SDS011;62428;51.412;5.432;2023-05-10T00:36:23;31.77;;;15.30;;
74074;SDS011;62428;51.412;5.432;2023-05-10T00:38:48;34.80;;;16.07;;
74074;SDS011;62428;51.412;5.432;2023-05-10T00:41:13;32.40;;;15.65;;
74074;SDS011;62428;51.412;5.432;2023-05-10T00:43:39;40.90;;;15.45;;
74074;SDS011;62428;51.412;5.432;2023-05-10T00:46:04;32.37;;;15.20;;
74074;SDS011;62428;51.412;5.432;2023-05-10T00:48:30;37.53;;;16.83;;
74074;SDS011;62428;51.412;5.432;2023-05-10T00:50:56;36.80;;;15.37;;
74074;SDS011;62428;51.412;5.432;2023-05-10T00:53:22;31.92;;;14.48;;
74074;SDS011;62428;51.412;5.432;2023-05-10T00:55:49;33.10;;;14.53;;
74074;SDS011;62428;51.412;5.432;2023-05-10T00:58:14;33.95;;;14.60;;
74074;SDS011;62428;51.412;5.432;2023-05-10T01:00:41;36.75;;;15.55;;
74074;SDS011;62428;51.412;5.432;2023-05-10T01:03:07;38.58;;;15.93;;
74074;SDS011;62428;51.412;5.432;2023-05-10T01:05:33;36.50;;;15.97;;
74074;SDS011;62428;51.412;5.432;2023-05-10T01:07:58;36.80;;;15.17;;
74074;SDS011;62428;51.412;5.432;2023-05-10T01:10:23;38.07;;;16.27;;
74074;SDS011;62428;51.412;5.432;2023-05-10T01:12:49;41.25;;;16.58;;
74074;SDS011;62428;51.412;5.432;2023-05-10T01:15:14;38.37;;;15.77;;
74074;SDS011;62428;51.412;5.432;2023-05-10T01:17:42;40.80;;;16.60;;
74074;SDS011;62428;51.412;5.432;2023-05-10T01:20:09;42.63;;;17.33;;
74074;SDS011;62428;51.412;5.432;2023-05-10T01:33:27;37.90;;;16.98;;
74074;SDS011;62428;51.412;5.432;2023-05-10T01:44:04;43.13;;;17.02;;
74074;SDS011;62428;51.412;5.432;2023-05-10T01:46:35;41.85;;;17.25;;
74074;SDS011;62428;51.412;5.432;2023-05-10T01:49:02;41.63;;;18.00;;
74074;SDS011;62428;51.412;5.432;2023-05-10T01:51:35;43.17;;;18.65;;
74074;SDS011;62428;51.412;5.432;2023-05-10T01:54:07;41.83;;;18.52;;
74074;SDS011;62428;51.412;5.432;2023-05-10T01:56:34;40.00;;;17.92;;
74074;SDS011;62428;51.412;5.432;2023-05-10T01:59:04;41.13;;;18.52;;
74074;SDS011;62428;51.412;5.432;2023-05-10T02:01:33;44.88;;;18.95;;
74074;SDS011;62428;51.412;5.432;2023-05-10T02:04:02;44.95;;;19.35;;
74074;SDS011;62428;51.412;5.432;2023-05-10T02:06:29;45.75;;;18.38;;
74074;SDS011;62428;51.412;5.432;2023-05-10T02:08:57;47.35;;;19.30;;
74074;SDS011;62428;51.412;5.432;2023-05-10T02:11:22;49.47;;;20.80;;
74074;SDS011;62428;51.412;5.432;2023-05-10T02:13:50;45.83;;;19.73;;
74074;SDS011;62428;51.412;5.432;2023-05-10T02:16:16;48.45;;;21.42;;
74074;SDS011;62428;51.412;5.432;2023-05-10T02:18:45;50.67;;;20.65;;
74074;SDS011;62428;51.412;5.432;2023-05-10T02:21:12;46.53;;;21.48;;
74074;SDS011;62428;51.412;5.432;2023-05-10T02:23:39;50.20;;;21.45;;
74074;SDS011;62428;51.412;5.432;2023-05-10T02:26:05;51.40;;;22.45;;
74074;SDS011;62428;51.412;5.432;2023-05-10T02:28:31;52.73;;;21.07;;
74074;SDS011;62428;51.412;5.432;2023-05-10T02:30:58;56.88;;;22.13;;
74074;SDS011;62428;51.412;5.432;2023-05-10T02:33:24;52.78;;;22.30;;
74074;SDS011;62428;51.412;5.432;2023-05-10T02:35:51;47.70;;;21.70;;
74074;SDS011;62428;51.412;5.432;2023-05-10T02:38:18;52.67;;;22.70;;
74074;SDS011;62428;51.412;5.432;2023-05-10T02:40:46;53.03;;;21.70;;
74074;SDS011;62428;51.412;5.432;2023-05-10T02:43:12;52.15;;;21.60;;
74074;SDS011;62428;51.412;5.432;2023-05-10T02:45:41;55.22;;;22.30;;
74074;SDS011;62428;51.412;5.432;2023-05-10T02:48:08;47.00;;;20.92;;
74074;SDS011;62428;51.412;5.432;2023-05-10T02:50:33;48.90;;;20.93;;
74074;SDS011;62428;51.412;5.432;2023-05-10T02:53:01;54.97;;;21.42;;
74074;SDS011;62428;51.412;5.432;2023-05-10T02:55:37;49.72;;;21.15;;
74074;SDS011;62428;51.412;5.432;2023-05-10T02:58:05;49.97;;;20.45;;
74074;SDS011;62428;51.412;5.432;2023-05-10T03:00:30;45.95;;;20.42;;
74074;SDS011;62428;51.412;5.432;2023-05-10T03:02:56;48.07;;;20.87;;
74074;SDS011;62428;51.412;5.432;2023-05-10T03:05:22;53.08;;;21.27;;
74074;SDS011;62428;51.412;5.432;2023-05-10T03:07:48;52.87;;;20.90;;
74074;SDS011;62428;51.412;5.432;2023-05-10T03:10:13;44.53;;;19.23;;
74074;SDS011;62428;51.412;5.432;2023-05-10T03:15:34;43.13;;;20.25;;
74074;SDS011;62428;51.412;5.432;2023-05-10T03:18:09;41.72;;;18.58;;
74074;SDS011;62428;51.412;5.432;2023-05-10T03:20:38;41.80;;;17.88;;
74074;SDS011;62428;51.412;5.432;2023-05-10T03:23:12;46.20;;;19.48;;
74074;SDS011;62428;51.412;5.432;2023-05-10T03:25:46;47.67;;;18.65;;
74074;SDS011;62428;51.412;5.432;2023-05-10T03:28:14;46.03;;;18.40;;
74074;SDS011;62428;51.412;5.432;2023-05-10T03:30:40;43.85;;;18.30;;
74074;SDS011;62428;51.412;5.432;2023-05-10T03:33:07;41.63;;;18.35;;
74074;SDS011;62428;51.412;5.432;2023-05-10T03:35:33;43.75;;;18.05;;
74074;SDS011;62428;51.412;5.432;2023-05-10T03:37:58;45.47;;;18.13;;
74074;SDS011;62428;51.412;5.432;2023-05-10T03:40:25;42.10;;;17.02;;
74074;SDS011;62428;51.412;5.432;2023-05-10T03:42:51;43.37;;;17.50;;
74074;SDS011;62428;51.412;5.432;2023-05-10T03:45:16;43.40;;;17.35;;
74074;SDS011;62428;51.412;5.432;2023-05-10T03:47:42;41.37;;;17.73;;
74074;SDS011;62428;51.412;5.432;2023-05-10T03:50:07;47.40;;;19.17;;
74074;SDS011;62428;51.412;5.432;2023-05-10T03:52:33;47.73;;;18.67;;
74074;SDS011;62428;51.412;5.432;2023-05-10T03:54:58;47.10;;;18.17;;
74074;SDS011;62428;51.412;5.432;2023-05-10T03:57:23;50.47;;;19.23;;
74074;SDS011;62428;51.412;5.432;2023-05-10T03:59:49;49.78;;;18.52;;
74074;SDS011;62428;51.412;5.432;2023-05-10T04:02:15;55.73;;;20.03;;
74074;SDS011;62428;51.412;5.432;2023-05-10T04:04:40;53.20;;;19.85;;
74074;SDS011;62428;51.412;5.432;2023-05-10T04:07:05;64.30;;;21.07;;
74074;SDS011;62428;51.412;5.432;2023-05-10T04:09:31;62.33;;;20.70;;
74074;SDS011;62428;51.412;5.432;2023-05-10T04:11:56;60.33;;;21.70;;
74074;SDS011;62428;51.412;5.432;2023-05-10T04:14:21;63.67;;;22.67;;
74074;SDS011;62428;51.412;5.432;2023-05-10T04:16:47;71.87;;;23.70;;
74074;SDS011;62428;51.412;5.432;2023-05-10T04:19:12;72.63;;;24.43;;
74074;SDS011;62428;51.412;5.432;2023-05-10T04:21:37;78.00;;;23.90;;
74074;SDS011;62428;51.412;5.432;2023-05-10T04:24:03;76.78;;;25.35;;
74074;SDS011;62428;51.412;5.432;2023-05-10T04:26:28;72.30;;;24.40;;
74074;SDS011;62428;51.412;5.432;2023-05-10T04:28:54;82.23;;;25.07;;
74074;SDS011;62428;51.412;5.432;2023-05-10T04:31:19;70.38;;;24.08;;
74074;SDS011;62428;51.412;5.432;2023-05-10T04:33:45;77.63;;;24.88;;
74074;SDS011;62428;51.412;5.432;2023-05-10T04:36:11;76.67;;;25.73;;
74074;SDS011;62428;51.412;5.432;2023-05-10T04:38:36;80.00;;;25.25;;
74074;SDS011;62428;51.412;5.432;2023-05-10T04:41:05;73.00;;;25.58;;
74074;SDS011;62428;51.412;5.432;2023-05-10T04:43:34;67.43;;;23.00;;
74074;SDS011;62428;51.412;5.432;2023-05-10T04:45:59;70.32;;;24.92;;
74074;SDS011;62428;51.412;5.432;2023-05-10T04:48:25;73.87;;;25.67;;
74074;SDS011;62428;51.412;5.432;2023-05-10T04:50:50;66.27;;;24.17;;
74074;SDS011;62428;51.412;5.432;2023-05-10T04:53:15;68.07;;;23.80;;
74074;SDS011;62428;51.412;5.432;2023-05-10T04:55:41;66.68;;;22.45;;
74074;SDS011;62428;51.412;5.432;2023-05-10T04:58:06;70.63;;;24.13;;
74074;SDS011;62428;51.412;5.432;2023-05-10T05:00:32;64.20;;;22.73;;
74074;SDS011;62428;51.412;5.432;2023-05-10T05:02:58;61.55;;;23.13;;
74074;SDS011;62428;51.412;5.432;2023-05-10T05:05:23;64.97;;;23.37;;
74074;SDS011;62428;51.412;5.432;2023-05-10T05:07:48;62.90;;;23.17;;
74074;SDS011;62428;51.412;5.432;2023-05-10T05:10:14;61.37;;;21.80;;
74074;SDS011;62428;51.412;5.432;2023-05-10T05:12:39;53.85;;;20.95;;
74074;SDS011;62428;51.412;5.432;2023-05-10T05:15:05;48.17;;;19.57;;
74074;SDS011;62428;51.412;5.432;2023-05-10T05:17:31;47.20;;;20.08;;
74074;SDS011;62428;51.412;5.432;2023-05-10T05:19:56;51.70;;;18.83;;
74074;SDS011;62428;51.412;5.432;2023-05-10T05:22:22;43.10;;;18.20;;
74074;SDS011;62428;51.412;5.432;2023-05-10T05:24:53;40.63;;;18.38;;
74074;SDS011;62428;51.412;5.432;2023-05-10T05:27:19;46.30;;;18.77;;
74074;SDS011;62428;51.412;5.432;2023-05-10T05:29:47;43.28;;;18.52;;
74074;SDS011;62428;51.412;5.432;2023-05-10T05:32:12;43.50;;;18.57;;
74074;SDS011;62428;51.412;5.432;2023-05-10T05:34:38;41.57;;;16.67;;
74074;SDS011;62428;51.412;5.432;2023-05-10T05:37:03;44.57;;;19.07;;
74074;SDS011;62428;51.412;5.432;2023-05-10T05:39:28;41.40;;;17.57;;
74074;SDS011;62428;51.412;5.432;2023-05-10T05:41:54;39.70;;;17.60;;
74074;SDS011;62428;51.412;5.432;2023-05-10T05:44:19;42.25;;;16.60;;
74074;SDS011;62428;51.412;5.432;2023-05-10T05:46:45;44.90;;;18.07;;
74074;SDS011;62428;51.412;5.432;2023-05-10T05:49:10;40.37;;;17.07;;
74074;SDS011;62428;51.412;5.432;2023-05-10T05:51:35;35.93;;;16.63;;
74074;SDS011;62428;51.412;5.432;2023-05-10T05:54:01;37.97;;;16.20;;
74074;SDS011;62428;51.412;5.432;2023-05-10T05:56:28;33.58;;;15.68;;
74074;SDS011;62428;51.412;5.432;2023-05-10T05:58:53;33.97;;;15.73;;
74074;SDS011;62428;51.412;5.432;2023-05-10T06:01:19;41.10;;;16.30;;
74074;SDS011;62428;51.412;5.432;2023-05-10T06:03:44;40.65;;;16.23;;
74074;SDS011;62428;51.412;5.432;2023-05-10T06:06:09;33.53;;;15.60;;
74074;SDS011;62428;51.412;5.432;2023-05-10T06:08:35;37.23;;;17.07;;
74074;SDS011;62428;51.412;5.432;2023-05-10T06:11:00;35.67;;;15.47;;
74074;SDS011;62428;51.412;5.432;2023-05-10T06:13:26;34.50;;;15.30;;
74074;SDS011;62428;51.412;5.432;2023-05-10T06:15:57;35.63;;;16.10;;
74074;SDS011;62428;51.412;5.432;2023-05-10T06:18:22;38.67;;;15.70;;
74074;SDS011;62428;51.412;5.432;2023-05-10T06:20:49;35.33;;;15.27;;
74074;SDS011;62428;51.412;5.432;2023-05-10T06:23:14;39.45;;;16.13;;
74074;SDS011;62428;51.412;5.432;2023-05-10T06:25:40;36.80;;;15.10;;
74074;SDS011;62428;51.412;5.432;2023-05-10T06:28:05;32.67;;;15.00;;
74074;SDS011;62428;51.412;5.432;2023-05-10T06:30:30;34.43;;;15.70;;
74074;SDS011;62428;51.412;5.432;2023-05-10T06:32:56;35.63;;;16.23;;
74074;SDS011;62428;51.412;5.432;2023-05-10T06:35:21;34.72;;;16.33;;
74074;SDS011;62428;51.412;5.432;2023-05-10T06:37:47;38.07;;;16.00;;
74074;SDS011;62428;51.412;5.432;2023-05-10T06:40:13;42.92;;;16.25;;
74074;SDS011;62428;51.412;5.432;2023-05-10T06:42:38;39.90;;;16.40;;
74074;SDS011;62428;51.412;5.432;2023-05-10T06:45:05;36.58;;;15.48;;
74074;SDS011;62428;51.412;5.432;2023-05-10T06:47:31;32.38;;;15.75;;
74074;SDS011;62428;51.412;5.432;2023-05-10T06:49:56;33.63;;;15.40;;
74074;SDS011;62428;51.412;5.432;2023-05-10T06:52:22;33.07;;;16.63;;
74074;SDS011;62428;51.412;5.432;2023-05-10T06:54:48;31.65;;;15.50;;
74074;SDS011;62428;51.412;5.432;2023-05-10T06:57:13;33.83;;;15.90;;
74074;SDS011;62428;51.412;5.432;2023-05-10T06:59:38;32.70;;;16.83;;
74074;SDS011;62428;51.412;5.432;2023-05-10T07:02:04;37.23;;;16.43;;
74074;SDS011;62428;51.412;5.432;2023-05-10T07:04:30;37.20;;;16.95;;
74074;SDS011;62428;51.412;5.432;2023-05-10T07:06:55;33.83;;;16.60;;
74074;SDS011;62428;51.412;5.432;2023-05-10T07:09:20;37.90;;;15.93;;
74074;SDS011;62428;51.412;5.432;2023-05-10T07:11:46;30.20;;;15.10;;
74074;SDS011;62428;51.412;5.432;2023-05-10T07:14:11;33.70;;;15.90;;
74074;SDS011;62428;51.412;5.432;2023-05-10T07:16:36;32.28;;;14.48;;
74074;SDS011;62428;51.412;5.432;2023-05-10T07:19:02;34.53;;;16.45;;
74074;SDS011;62428;51.412;5.432;2023-05-10T07:21:27;30.03;;;14.67;;
74074;SDS011;62428;51.412;5.432;2023-05-10T07:23:53;28.33;;;13.82;;
74074;SDS011;62428;51.412;5.432;2023-05-10T07:26:19;30.58;;;13.65;;
74074;SDS011;62428;51.412;5.432;2023-05-10T07:28:45;27.48;;;11.77;;
74074;SDS011;62428;51.412;5.432;2023-05-10T07:31:11;23.83;;;11.18;;
74074;SDS011;62428;51.412;5.432;2023-05-10T07:33:37;31.40;;;11.63;;
74074;SDS011;62428;51.412;5.432;2023-05-10T07:36:02;22.73;;;11.23;;
74074;SDS011;62428;51.412;5.432;2023-05-10T07:38:28;20.80;;;10.20;;
74074;SDS011;62428;51.412;5.432;2023-05-10T07:40:53;25.00;;;10.77;;
74074;SDS011;62428;51.412;5.432;2023-05-10T07:43:18;23.00;;;9.97;;
74074;SDS011;62428;51.412;5.432;2023-05-10T07:45:44;19.27;;;9.20;;
74074;SDS011;62428;51.412;5.432;2023-05-10T07:48:09;18.20;;;9.60;;
74074;SDS011;62428;51.412;5.432;2023-05-10T07:50:34;16.13;;;8.83;;
74074;SDS011;62428;51.412;5.432;2023-05-10T07:53:00;16.37;;;7.67;;
74074;SDS011;62428;51.412;5.432;2023-05-10T07:55:25;16.77;;;7.47;;
74074;SDS011;62428;51.412;5.432;2023-05-10T07:57:51;13.45;;;7.63;;
74074;SDS011;62428;51.412;5.432;2023-05-10T08:00:17;18.03;;;7.70;;
74074;SDS011;62428;51.412;5.432;2023-05-10T08:02:43;11.90;;;7.80;;
74074;SDS011;62428;51.412;5.432;2023-05-10T08:05:08;16.10;;;6.83;;
74074;SDS011;62428;51.412;5.432;2023-05-10T08:07:34;14.73;;;7.13;;
74074;SDS011;62428;51.412;5.432;2023-05-10T08:10:00;15.50;;;7.17;;
74074;SDS011;62428;51.412;5.432;2023-05-10T08:12:25;13.88;;;6.68;;
74074;SDS011;62428;51.412;5.432;2023-05-10T08:14:51;13.87;;;6.80;;
74074;SDS011;62428;51.412;5.432;2023-05-10T08:17:16;14.23;;;7.03;;
74074;SDS011;62428;51.412;5.432;2023-05-10T08:19:41;12.47;;;7.17;;
74074;SDS011;62428;51.412;5.432;2023-05-10T08:22:07;15.17;;;7.53;;
74074;SDS011;62428;51.412;5.432;2023-05-10T08:24:32;16.95;;;7.93;;
74074;SDS011;62428;51.412;5.432;2023-05-10T08:26:59;13.40;;;7.25;;
74074;SDS011;62428;51.412;5.432;2023-05-10T08:29:25;16.23;;;7.38;;
74074;SDS011;62428;51.412;5.432;2023-05-10T08:31:51;11.33;;;6.70;;
74074;SDS011;62428;51.412;5.432;2023-05-10T08:34:16;14.02;;;6.90;;
74074;SDS011;62428;51.412;5.432;2023-05-10T08:36:41;10.73;;;7.07;;
74074;SDS011;62428;51.412;5.432;2023-05-10T08:39:07;15.07;;;7.43;;
74074;SDS011;62428;51.412;5.432;2023-05-10T08:41:32;12.83;;;7.20;;
74074;SDS011;62428;51.412;5.432;2023-05-10T08:43:58;12.70;;;6.68;;
74074;SDS011;62428;51.412;5.432;2023-05-10T08:46:28;13.37;;;6.80;;
74074;SDS011;62428;51.412;5.432;2023-05-10T08:48:57;17.48;;;6.88;;
74074;SDS011;62428;51.412;5.432;2023-05-10T08:51:26;15.13;;;6.75;;
74074;SDS011;62428;51.412;5.432;2023-05-10T08:53:57;13.52;;;6.55;;
74074;SDS011;62428;51.412;5.432;2023-05-10T08:56:22;12.23;;;6.47;;
74074;SDS011;62428;51.412;5.432;2023-05-10T08:58:49;9.30;;;5.70;;
74074;SDS011;62428;51.412;5.432;2023-05-10T09:01:15;10.25;;;6.97;;
74074;SDS011;62428;51.412;5.432;2023-05-10T09:03:43;10.05;;;6.25;;
74074;SDS011;62428;51.412;5.432;2023-05-10T09:06:10;11.98;;;6.95;;
74074;SDS011;62428;51.412;5.432;2023-05-10T09:08:38;13.93;;;7.22;;
74074;SDS011;62428;51.412;5.432;2023-05-10T09:11:03;11.70;;;6.53;;
74074;SDS011;62428;51.412;5.432;2023-05-10T09:13:30;10.23;;;6.55;;
74074;SDS011;62428;51.412;5.432;2023-05-10T09:15:55;13.57;;;7.10;;
74074;SDS011;62428;51.412;5.432;2023-05-10T09:18:21;9.93;;;6.13;;
74074;SDS011;62428;51.412;5.432;2023-05-10T09:20:46;11.88;;;6.28;;
74074;SDS011;62428;51.412;5.432;2023-05-10T09:23:12;11.77;;;6.63;;
74074;SDS011;62428;51.412;5.432;2023-05-10T09:25:37;11.83;;;6.87;;
74074;SDS011;62428;51.412;5.432;2023-05-10T09:28:05;11.73;;;6.68;;
74074;SDS011;62428;51.412;5.432;2023-05-10T09:30:31;11.67;;;6.77;;
74074;SDS011;62428;51.412;5.432;2023-05-10T09:32:57;11.30;;;6.72;;
74074;SDS011;62428;51.412;5.432;2023-05-10T09:35:25;13.63;;;7.27;;
74074;SDS011;62428;51.412;5.432;2023-05-10T09:37:53;15.48;;;7.10;;
74074;SDS011;62428;51.412;5.432;2023-05-10T09:43:02;12.57;;;7.03;;
74074;SDS011;62428;51.412;5.432;2023-05-10T09:45:32;11.32;;;6.63;;
74074;SDS011;62428;51.412;5.432;2023-05-10T09:47:59;15.00;;;7.50;;
74074;SDS011;62428;51.412;5.432;2023-05-10T09:50:25;16.08;;;6.75;;
74074;SDS011;62428;51.412;5.432;2023-05-10T09:55:23;13.02;;;6.88;;
74074;SDS011;62428;51.412;5.432;2023-05-10T09:57:58;13.60;;;6.43;;
74074;SDS011;62428;51.412;5.432;2023-05-10T10:00:24;11.10;;;6.60;;
74074;SDS011;62428;51.412;5.432;2023-05-10T10:02:58;11.48;;;6.60;;
74074;SDS011;62428;51.412;5.432;2023-05-10T10:05:28;10.32;;;6.32;;
74074;SDS011;62428;51.412;5.432;2023-05-10T10:07:55;11.02;;;5.60;;
74074;SDS011;62428;51.412;5.432;2023-05-10T10:10:22;9.45;;;5.53;;
74074;SDS011;62428;51.412;5.432;2023-05-10T10:12:48;9.87;;;5.23;;
74074;SDS011;62428;51.412;5.432;2023-05-10T10:15:13;9.52;;;4.97;;
74074;SDS011;62428;51.412;5.432;2023-05-10T10:17:39;7.47;;;3.80;;
74074;SDS011;62428;51.412;5.432;2023-05-10T10:20:06;7.72;;;4.10;;
74074;SDS011;62428;51.412;5.432;2023-05-10T10:22:32;7.05;;;4.05;;
74074;SDS011;62428;51.412;5.432;2023-05-10T10:24:57;6.13;;;4.30;;
74074;SDS011;62428;51.412;5.432;2023-05-10T10:30:04;7.55;;;4.15;;
74074;SDS011;62428;51.412;5.432;2023-05-10T10:35:38;11.73;;;5.00;;
74074;SDS011;62428;51.412;5.432;2023-05-10T10:38:05;8.05;;;5.80;;
74074;SDS011;62428;51.412;5.432;2023-05-10T10:40:33;12.53;;;6.70;;
74074;SDS011;62428;51.412;5.432;2023-05-10T10:43:20;10.52;;;6.40;;
74074;SDS011;62428;51.412;5.432;2023-05-10T10:46:10;14.35;;;7.15;;
74074;SDS011;62428;51.412;5.432;2023-05-10T10:48:50;14.20;;;8.38;;
74074;SDS011;62428;51.412;5.432;2023-05-10T10:51:36;14.63;;;8.40;;
74074;SDS011;62428;51.412;5.432;2023-05-10T10:54:09;16.67;;;9.27;;
74074;SDS011;62428;51.412;5.432;2023-05-10T10:56:35;14.48;;;9.70;;
74074;SDS011;62428;51.412;5.432;2023-05-10T10:59:00;17.47;;;9.37;;
74074;SDS011;62428;51.412;5.432;2023-05-10T11:01:26;17.40;;;10.60;;
74074;SDS011;62428;51.412;5.432;2023-05-10T11:06:33;16.03;;;10.20;;
74074;SDS011;62428;51.412;5.432;2023-05-10T11:09:10;18.07;;;9.90;;
74074;SDS011;62428;51.412;5.432;2023-05-10T11:11:48;15.88;;;9.75;;
74074;SDS011;62428;51.412;5.432;2023-05-10T11:14:17;20.23;;;9.68;;
74074;SDS011;62428;51.412;5.432;2023-05-10T11:16:45;14.90;;;9.32;;
74074;SDS011;62428;51.412;5.432;2023-05-10T11:19:11;15.53;;;10.03;;
74074;SDS011;62428;51.412;5.432;2023-05-10T11:22:12;19.65;;;9.82;;
74074;SDS011;62428;51.412;5.432;2023-05-10T11:24:29;21.92;;;10.43;;
74074;SDS011;62428;51.412;5.432;2023-05-10T11:26:55;21.05;;;10.23;;
74074;SDS011;62428;51.412;5.432;2023-05-10T11:29:21;17.92;;;10.80;;
74074;SDS011;62428;51.412;5.432;2023-05-10T11:31:47;18.30;;;10.25;;
74074;SDS011;62428;51.412;5.432;2023-05-10T11:34:27;20.15;;;11.82;;
74074;SDS011;62428;51.412;5.432;2023-05-10T11:36:55;22.63;;;12.45;;
74074;SDS011;62428;51.412;5.432;2023-05-10T11:39:21;20.90;;;12.77;;
74074;SDS011;62428;51.412;5.432;2023-05-10T11:41:50;19.60;;;11.70;;
74074;SDS011;62428;51.412;5.432;2023-05-10T11:44:15;20.33;;;11.40;;
74074;SDS011;62428;51.412;5.432;2023-05-10T11:46:41;17.75;;;11.00;;
74074;SDS011;62428;51.412;5.432;2023-05-10T11:49:06;22.73;;;12.43;;
74074;SDS011;62428;51.412;5.432;2023-05-10T11:51:33;20.58;;;11.50;;
74074;SDS011;62428;51.412;5.432;2023-05-10T11:54:07;20.37;;;11.07;;
74074;SDS011;62428;51.412;5.432;2023-05-10T11:56:34;20.90;;;10.70;;
74074;SDS011;62428;51.412;5.432;2023-05-10T11:58:59;23.23;;;11.73;;
74074;SDS011;62428;51.412;5.432;2023-05-10T12:01:26;21.23;;;12.45;;
74074;SDS011;62428;51.412;5.432;2023-05-10T12:03:53;20.05;;;11.45;;
74074;SDS011;62428;51.412;5.432;2023-05-10T12:06:20;21.17;;;11.43;;
74074;SDS011;62428;51.412;5.432;2023-05-10T12:08:46;21.75;;;11.57;;
74074;SDS011;62428;51.412;5.432;2023-05-10T12:11:13;24.80;;;11.07;;
74074;SDS011;62428;51.412;5.432;2023-05-10T12:13:40;21.45;;;10.57;;
74074;SDS011;62428;51.412;5.432;2023-05-10T12:18:50;24.10;;;10.60;;
74074;SDS011;62428;51.412;5.432;2023-05-10T12:21:16;20.90;;;10.90;;
74074;SDS011;62428;51.412;5.432;2023-05-10T12:23:42;18.57;;;10.90;;
74074;SDS011;62428;51.412;5.432;2023-05-10T12:26:11;23.60;;;11.45;;
74074;SDS011;62428;51.412;5.432;2023-05-10T12:28:37;22.30;;;10.43;;
74074;SDS011;62428;51.412;5.432;2023-05-10T12:31:03;19.20;;;10.07;;
74074;SDS011;62428;51.412;5.432;2023-05-10T12:33:36;16.92;;;9.23;;
74074;SDS011;62428;51.412;5.432;2023-05-10T12:36:04;17.60;;;9.80;;
74074;SDS011;62428;51.412;5.432;2023-05-10T12:38:43;18.52;;;9.48;;
74074;SDS011;62428;51.412;5.432;2023-05-10T12:41:13;22.50;;;9.55;;
74074;SDS011;62428;51.412;5.432;2023-05-10T12:43:39;17.17;;;9.47;;
74074;SDS011;62428;51.412;5.432;2023-05-10T12:46:06;21.60;;;9.57;;
74074;SDS011;62428;51.412;5.432;2023-05-10T12:48:32;10.65;;;6.15;;
74074;SDS011;62428;51.412;5.432;2023-05-10T12:50:59;7.85;;;4.68;;
74074;SDS011;62428;51.412;5.432;2023-05-10T12:53:25;13.23;;;5.20;;
74074;SDS011;62428;51.412;5.432;2023-05-10T12:55:50;4.70;;;3.00;;
74074;SDS011;62428;51.412;5.432;2023-05-10T12:58:16;3.30;;;2.70;;
74074;SDS011;62428;51.412;5.432;2023-05-10T13:00:41;5.97;;;2.80;;
74074;SDS011;62428;51.412;5.432;2023-05-10T13:03:06;5.17;;;3.30;;
74074;SDS011;62428;51.412;5.432;2023-05-10T13:05:32;7.33;;;4.23;;
74074;SDS011;62428;51.412;5.432;2023-05-10T13:07:58;7.68;;;4.80;;
74074;SDS011;62428;51.412;5.432;2023-05-10T13:10:23;6.67;;;4.70;;
74074;SDS011;62428;51.412;5.432;2023-05-10T13:12:48;8.53;;;5.70;;
74074;SDS011;62428;51.412;5.432;2023-05-10T13:15:14;12.25;;;6.78;;
74074;SDS011;62428;51.412;5.432;2023-05-10T13:17:39;8.70;;;6.67;;
74074;SDS011;62428;51.412;5.432;2023-05-10T13:20:05;10.75;;;5.82;;
74074;SDS011;62428;51.412;5.432;2023-05-10T13:22:31;10.97;;;5.87;;
74074;SDS011;62428;51.412;5.432;2023-05-10T13:24:56;9.90;;;5.60;;
74074;SDS011;62428;51.412;5.432;2023-05-10T13:27:22;9.83;;;6.17;;
74074;SDS011;62428;51.412;5.432;2023-05-10T13:29:47;10.43;;;6.33;;
74074;SDS011;62428;51.412;5.432;2023-05-10T13:32:12;12.53;;;7.07;;
74074;SDS011;62428;51.412;5.432;2023-05-10T13:34:38;13.37;;;8.07;;
74074;SDS011;62428;51.412;5.432;2023-05-10T13:37:03;15.37;;;9.03;;
74074;SDS011;62428;51.412;5.432;2023-05-10T13:39:28;16.73;;;9.80;;
74074;SDS011;62428;51.412;5.432;2023-05-10T13:41:58;18.20;;;11.05;;
74074;SDS011;62428;51.412;5.432;2023-05-10T13:44:23;15.73;;;10.00;;
74074;SDS011;62428;51.412;5.432;2023-05-10T13:46:48;18.37;;;10.90;;
74074;SDS011;62428;51.412;5.432;2023-05-10T13:49:14;11.10;;;7.43;;
74074;SDS011;62428;51.412;5.432;2023-05-10T13:51:39;14.73;;;7.50;;
74074;SDS011;62428;51.412;5.432;2023-05-10T13:54:05;10.53;;;6.70;;
74074;SDS011;62428;51.412;5.432;2023-05-10T13:56:30;13.83;;;6.80;;
74074;SDS011;62428;51.412;5.432;2023-05-10T13:58:56;18.63;;;6.60;;
74074;SDS011;62428;51.412;5.432;2023-05-10T14:01:22;11.80;;;6.35;;
74074;SDS011;62428;51.412;5.432;2023-05-10T14:03:47;12.13;;;5.63;;
74074;SDS011;62428;51.412;5.432;2023-05-10T14:06:13;13.10;;;6.18;;
74074;SDS011;62428;51.412;5.432;2023-05-10T14:08:38;13.43;;;5.87;;
74074;SDS011;62428;51.412;5.432;2023-05-10T14:11:03;8.77;;;5.33;;
74074;SDS011;62428;51.412;5.432;2023-05-10T14:13:29;13.53;;;5.80;;
74074;SDS011;62428;51.412;5.432;2023-05-10T14:15:54;10.77;;;5.67;;
74074;SDS011;62428;51.412;5.432;2023-05-10T14:18:20;7.10;;;5.15;;
74074;SDS011;62428;51.412;5.432;2023-05-10T14:20:45;9.70;;;5.10;;
74074;SDS011;62428;51.412;5.432;2023-05-10T14:23:11;8.32;;;4.97;;
74074;SDS011;62428;51.412;5.432;2023-05-10T14:25:37;7.93;;;4.37;;
74074;SDS011;62428;51.412;5.432;2023-05-10T14:28:05;7.10;;;4.40;;
74074;SDS011;62428;51.412;5.432;2023-05-10T14:30:30;6.88;;;4.28;;
74074;SDS011;62428;51.412;5.432;2023-05-10T14:32:56;6.57;;;3.53;;
74074;SDS011;62428;51.412;5.432;2023-05-10T14:35:23;4.90;;;2.90;;
74074;SDS011;62428;51.412;5.432;2023-05-10T14:37:48;7.70;;;2.87;;
74074;SDS011;62428;51.412;5.432;2023-05-10T14:40:14;4.25;;;2.80;;
74074;SDS011;62428;51.412;5.432;2023-05-10T14:42:40;6.67;;;2.83;;
74074;SDS011;62428;51.412;5.432;2023-05-10T14:45:05;4.85;;;2.53;;
74074;SDS011;62428;51.412;5.432;2023-05-10T14:47:31;3.90;;;2.40;;
74074;SDS011;62428;51.412;5.432;2023-05-10T14:49:56;4.83;;;2.90;;
74074;SDS011;62428;51.412;5.432;2023-05-10T14:52:23;5.10;;;3.28;;
74074;SDS011;62428;51.412;5.432;2023-05-10T14:54:48;6.37;;;4.20;;
74074;SDS011;62428;51.412;5.432;2023-05-10T14:57:13;5.53;;;3.03;;
74074;SDS011;62428;51.412;5.432;2023-05-10T14:59:39;6.80;;;3.50;;
74074;SDS011;62428;51.412;5.432;2023-05-10T15:02:04;4.60;;;3.67;;
74074;SDS011;62428;51.412;5.432;2023-05-10T15:04:30;6.85;;;3.88;;